sensor_id;sensor_type;location;lat;lon;timestamp;P1;durP1;ratioP1;P2;durP2;ratioP2
58196;SDS011;43999;51.660;5.616;2023-04-24T00:02:01;12.73;;;11.48;;
58196;SDS011;43999;51.660;5.616;2023-04-24T00:04:30;11.88;;;10.88;;
58196;SDS011;43999;51.660;5.616;2023-04-24T00:06:58;13.15;;;11.85;;
58196;SDS011;43999;51.660;5.616;2023-04-24T00:09:26;11.98;;;10.88;;
58196;SDS011;43999;51.660;5.616;2023-04-24T00:11:53;11.02;;;10.02;;
58196;SDS011;43999;51.660;5.616;2023-04-24T00:14:22;10.18;;;9.13;;
58196;SDS011;43999;51.660;5.616;2023-04-24T00:16:49;11.85;;;10.75;;
58196;SDS011;43999;51.660;5.616;2023-04-24T00:19:17;11.45;;;10.35;;
58196;SDS011;43999;51.660;5.616;2023-04-24T00:21:47;12.90;;;11.80;;
58196;SDS011;43999;51.660;5.616;2023-04-24T00:24:19;11.50;;;10.50;;
58196;SDS011;43999;51.660;5.616;2023-04-24T00:26:47;11.38;;;10.18;;
58196;SDS011;43999;51.660;5.616;2023-04-24T00:29:15;12.80;;;11.50;;
58196;SDS011;43999;51.660;5.616;2023-04-24T00:31:43;14.82;;;13.43;;
58196;SDS011;43999;51.660;5.616;2023-04-24T00:34:12;13.18;;;11.68;;
58196;SDS011;43999;51.660;5.616;2023-04-24T00:36:40;16.38;;;14.68;;
58196;SDS011;43999;51.660;5.616;2023-04-24T00:39:07;16.75;;;15.13;;
58196;SDS011;43999;51.660;5.616;2023-04-24T00:41:37;18.55;;;16.63;;
58196;SDS011;43999;51.660;5.616;2023-04-24T00:44:05;17.05;;;15.25;;
58196;SDS011;43999;51.660;5.616;2023-04-24T00:46:32;17.33;;;15.60;;
58196;SDS011;43999;51.660;5.616;2023-04-24T00:49:00;18.98;;;17.23;;
58196;SDS011;43999;51.660;5.616;2023-04-24T00:51:29;18.45;;;16.50;;
58196;SDS011;43999;51.660;5.616;2023-04-24T00:53:57;19.80;;;17.00;;
58196;SDS011;43999;51.660;5.616;2023-04-24T00:56:25;19.90;;;17.20;;
58196;SDS011;43999;51.660;5.616;2023-04-24T00:58:53;22.02;;;19.67;;
58196;SDS011;43999;51.660;5.616;2023-04-24T01:01:24;22.88;;;18.70;;
58196;SDS011;43999;51.660;5.616;2023-04-24T01:03:52;21.88;;;19.58;;
58196;SDS011;43999;51.660;5.616;2023-04-24T01:06:21;24.50;;;18.92;;
58196;SDS011;43999;51.660;5.616;2023-04-24T01:08:53;22.42;;;18.67;;
58196;SDS011;43999;51.660;5.616;2023-04-24T01:11:22;23.13;;;20.38;;
58196;SDS011;43999;51.660;5.616;2023-04-24T01:13:49;22.83;;;18.52;;
58196;SDS011;43999;51.660;5.616;2023-04-24T01:16:18;26.45;;;22.88;;
58196;SDS011;43999;51.660;5.616;2023-04-24T01:18:47;27.23;;;19.85;;
58196;SDS011;43999;51.660;5.616;2023-04-24T01:21:17;25.50;;;22.00;;
58196;SDS011;43999;51.660;5.616;2023-04-24T01:23:47;24.02;;;21.25;;
58196;SDS011;43999;51.660;5.616;2023-04-24T01:26:17;24.75;;;22.05;;
58196;SDS011;43999;51.660;5.616;2023-04-24T01:28:46;29.77;;;24.40;;
58196;SDS011;43999;51.660;5.616;2023-04-24T01:31:15;25.85;;;23.08;;
58196;SDS011;43999;51.660;5.616;2023-04-24T01:33:43;32.80;;;25.85;;
58196;SDS011;43999;51.660;5.616;2023-04-24T01:36:10;32.90;;;25.42;;
58196;SDS011;43999;51.660;5.616;2023-04-24T01:38:38;31.02;;;27.48;;
58196;SDS011;43999;51.660;5.616;2023-04-24T01:41:05;31.52;;;26.80;;
58196;SDS011;43999;51.660;5.616;2023-04-24T01:43:33;29.48;;;26.33;;
58196;SDS011;43999;51.660;5.616;2023-04-24T01:46:00;31.60;;;25.60;;
58196;SDS011;43999;51.660;5.616;2023-04-24T01:48:28;28.55;;;25.58;;
58196;SDS011;43999;51.660;5.616;2023-04-24T01:50:57;28.00;;;23.70;;
58196;SDS011;43999;51.660;5.616;2023-04-24T01:53:26;28.67;;;25.60;;
58196;SDS011;43999;51.660;5.616;2023-04-24T01:55:54;29.90;;;25.55;;
58196;SDS011;43999;51.660;5.616;2023-04-24T01:58:24;27.05;;;23.65;;
58196;SDS011;43999;51.660;5.616;2023-04-24T02:00:52;31.48;;;28.17;;
58196;SDS011;43999;51.660;5.616;2023-04-24T02:03:22;37.15;;;33.38;;
58196;SDS011;43999;51.660;5.616;2023-04-24T02:05:54;30.75;;;26.55;;
58196;SDS011;43999;51.660;5.616;2023-04-24T02:08:23;35.75;;;31.92;;
58196;SDS011;43999;51.660;5.616;2023-04-24T02:10:50;35.75;;;28.55;;
58196;SDS011;43999;51.660;5.616;2023-04-24T02:13:18;35.58;;;30.02;;
58196;SDS011;43999;51.660;5.616;2023-04-24T02:15:46;43.50;;;35.08;;
58196;SDS011;43999;51.660;5.616;2023-04-24T02:18:15;43.50;;;36.70;;
58196;SDS011;43999;51.660;5.616;2023-04-24T02:20:42;43.65;;;39.20;;
58196;SDS011;43999;51.660;5.616;2023-04-24T02:23:10;36.75;;;30.00;;
58196;SDS011;43999;51.660;5.616;2023-04-24T02:25:39;39.70;;;32.85;;
58196;SDS011;43999;51.660;5.616;2023-04-24T02:28:07;42.55;;;32.90;;
58196;SDS011;43999;51.660;5.616;2023-04-24T02:30:37;43.08;;;34.67;;
58196;SDS011;43999;51.660;5.616;2023-04-24T02:33:05;40.30;;;33.72;;
58196;SDS011;43999;51.660;5.616;2023-04-24T02:35:35;40.63;;;33.70;;
58196;SDS011;43999;51.660;5.616;2023-04-24T02:38:02;35.08;;;30.83;;
58196;SDS011;43999;51.660;5.616;2023-04-24T02:40:32;38.75;;;32.80;;
58196;SDS011;43999;51.660;5.616;2023-04-24T02:43:00;37.15;;;33.20;;
58196;SDS011;43999;51.660;5.616;2023-04-24T02:45:29;34.45;;;30.40;;
58196;SDS011;43999;51.660;5.616;2023-04-24T02:47:57;36.47;;;32.70;;
58196;SDS011;43999;51.660;5.616;2023-04-24T02:50:30;33.30;;;28.52;;
58196;SDS011;43999;51.660;5.616;2023-04-24T02:52:59;34.28;;;28.02;;
58196;SDS011;43999;51.660;5.616;2023-04-24T02:55:27;35.72;;;29.98;;
58196;SDS011;43999;51.660;5.616;2023-04-24T02:57:57;32.05;;;27.42;;
58196;SDS011;43999;51.660;5.616;2023-04-24T03:00:25;35.45;;;30.38;;
58196;SDS011;43999;51.660;5.616;2023-04-24T03:02:54;34.22;;;28.88;;
58196;SDS011;43999;51.660;5.616;2023-04-24T03:05:22;34.72;;;29.92;;
58196;SDS011;43999;51.660;5.616;2023-04-24T03:07:51;34.28;;;26.48;;
58196;SDS011;43999;51.660;5.616;2023-04-24T03:10:22;32.00;;;28.60;;
58196;SDS011;43999;51.660;5.616;2023-04-24T03:12:49;33.50;;;27.17;;
58196;SDS011;43999;51.660;5.616;2023-04-24T03:15:20;30.48;;;26.98;;
58196;SDS011;43999;51.660;5.616;2023-04-24T03:17:47;32.92;;;29.33;;
58196;SDS011;43999;51.660;5.616;2023-04-24T03:20:15;38.80;;;28.73;;
58196;SDS011;43999;51.660;5.616;2023-04-24T03:22:45;34.25;;;30.42;;
58196;SDS011;43999;51.660;5.616;2023-04-24T03:25:12;31.23;;;26.30;;
58196;SDS011;43999;51.660;5.616;2023-04-24T03:27:39;33.97;;;30.48;;
58196;SDS011;43999;51.660;5.616;2023-04-24T03:30:22;32.83;;;26.23;;
58196;SDS011;43999;51.660;5.616;2023-04-24T03:32:55;30.55;;;27.25;;
58196;SDS011;43999;51.660;5.616;2023-04-24T03:35:27;29.63;;;24.60;;
58196;SDS011;43999;51.660;5.616;2023-04-24T03:37:56;30.50;;;27.35;;
58196;SDS011;43999;51.660;5.616;2023-04-24T03:40:48;30.92;;;26.00;;
58196;SDS011;43999;51.660;5.616;2023-04-24T03:43:40;31.67;;;25.20;;
58196;SDS011;43999;51.660;5.616;2023-04-24T03:46:07;30.25;;;26.58;;
58196;SDS011;43999;51.660;5.616;2023-04-24T03:48:46;29.30;;;24.92;;
58196;SDS011;43999;51.660;5.616;2023-04-24T03:51:19;28.67;;;24.48;;
58196;SDS011;43999;51.660;5.616;2023-04-24T03:53:49;32.95;;;25.88;;
58196;SDS011;43999;51.660;5.616;2023-04-24T03:56:20;31.98;;;28.48;;
58196;SDS011;43999;51.660;5.616;2023-04-24T03:58:47;27.50;;;24.50;;
58196;SDS011;43999;51.660;5.616;2023-04-24T04:01:15;29.45;;;26.60;;
58196;SDS011;43999;51.660;5.616;2023-04-24T04:03:53;27.95;;;24.85;;
58196;SDS011;43999;51.660;5.616;2023-04-24T04:06:23;26.20;;;23.42;;
58196;SDS011;43999;51.660;5.616;2023-04-24T04:08:52;25.92;;;22.92;;
58196;SDS011;43999;51.660;5.616;2023-04-24T04:11:20;27.52;;;23.83;;
58196;SDS011;43999;51.660;5.616;2023-04-24T04:13:51;24.52;;;21.25;;
58196;SDS011;43999;51.660;5.616;2023-04-24T04:16:24;25.90;;;22.70;;
58196;SDS011;43999;51.660;5.616;2023-04-24T04:18:59;27.80;;;24.77;;
58196;SDS011;43999;51.660;5.616;2023-04-24T04:21:29;30.98;;;24.95;;
58196;SDS011;43999;51.660;5.616;2023-04-24T04:24:33;27.20;;;24.10;;
58196;SDS011;43999;51.660;5.616;2023-04-24T04:27:05;27.85;;;23.85;;
58196;SDS011;43999;51.660;5.616;2023-04-24T04:29:42;24.65;;;22.15;;
58196;SDS011;43999;51.660;5.616;2023-04-24T04:32:14;32.08;;;29.25;;
58196;SDS011;43999;51.660;5.616;2023-04-24T04:34:42;28.85;;;25.65;;
58196;SDS011;43999;51.660;5.616;2023-04-24T04:37:13;23.73;;;20.48;;
58196;SDS011;43999;51.660;5.616;2023-04-24T04:39:52;25.80;;;22.45;;
58196;SDS011;43999;51.660;5.616;2023-04-24T04:42:24;24.00;;;21.55;;
58196;SDS011;43999;51.660;5.616;2023-04-24T04:44:54;22.45;;;19.63;;
58196;SDS011;43999;51.660;5.616;2023-04-24T04:47:34;28.10;;;24.00;;
58196;SDS011;43999;51.660;5.616;2023-04-24T04:50:08;23.75;;;21.23;;
58196;SDS011;43999;51.660;5.616;2023-04-24T04:52:46;26.17;;;21.35;;
58196;SDS011;43999;51.660;5.616;2023-04-24T04:55:22;26.27;;;23.20;;
58196;SDS011;43999;51.660;5.616;2023-04-24T04:58:13;24.13;;;21.60;;
58196;SDS011;43999;51.660;5.616;2023-04-24T05:00:43;24.02;;;21.52;;
58196;SDS011;43999;51.660;5.616;2023-04-24T05:03:20;27.77;;;25.08;;
58196;SDS011;43999;51.660;5.616;2023-04-24T05:05:54;24.15;;;20.13;;
58196;SDS011;43999;51.660;5.616;2023-04-24T05:08:23;24.55;;;21.95;;
58196;SDS011;43999;51.660;5.616;2023-04-24T05:10:54;22.02;;;19.85;;
58196;SDS011;43999;51.660;5.616;2023-04-24T05:13:26;24.70;;;22.15;;
58196;SDS011;43999;51.660;5.616;2023-04-24T05:16:17;25.20;;;21.23;;
58196;SDS011;43999;51.660;5.616;2023-04-24T05:18:46;22.60;;;19.10;;
58196;SDS011;43999;51.660;5.616;2023-04-24T05:21:17;22.77;;;20.23;;
58196;SDS011;43999;51.660;5.616;2023-04-24T05:23:50;22.25;;;19.98;;
58196;SDS011;43999;51.660;5.616;2023-04-24T05:26:28;21.88;;;19.58;;
58196;SDS011;43999;51.660;5.616;2023-04-24T05:28:57;22.95;;;20.63;;
58196;SDS011;43999;51.660;5.616;2023-04-24T05:31:25;22.10;;;19.75;;
58196;SDS011;43999;51.660;5.616;2023-04-24T05:33:54;23.40;;;19.17;;
58196;SDS011;43999;51.660;5.616;2023-04-24T05:36:22;22.20;;;18.02;;
58196;SDS011;43999;51.660;5.616;2023-04-24T05:38:52;20.33;;;18.17;;
58196;SDS011;43999;51.660;5.616;2023-04-24T05:41:30;20.63;;;16.98;;
58196;SDS011;43999;51.660;5.616;2023-04-24T05:43:59;19.55;;;17.45;;
58196;SDS011;43999;51.660;5.616;2023-04-24T05:46:27;18.90;;;16.98;;
58196;SDS011;43999;51.660;5.616;2023-04-24T05:48:55;16.73;;;14.88;;
58196;SDS011;43999;51.660;5.616;2023-04-24T05:51:23;21.10;;;13.52;;
58196;SDS011;43999;51.660;5.616;2023-04-24T05:53:51;18.83;;;15.20;;
58196;SDS011;43999;51.660;5.616;2023-04-24T05:56:18;15.52;;;12.63;;
58196;SDS011;43999;51.660;5.616;2023-04-24T05:58:48;14.70;;;12.88;;
58196;SDS011;43999;51.660;5.616;2023-04-24T06:01:23;10.90;;;9.80;;
58196;SDS011;43999;51.660;5.616;2023-04-24T06:04:03;13.38;;;10.35;;
58196;SDS011;43999;51.660;5.616;2023-04-24T06:06:34;9.73;;;8.73;;
58196;SDS011;43999;51.660;5.616;2023-04-24T06:09:03;9.23;;;8.25;;
58196;SDS011;43999;51.660;5.616;2023-04-24T06:11:32;10.25;;;8.60;;
58196;SDS011;43999;51.660;5.616;2023-04-24T06:14:02;8.82;;;7.45;;
58196;SDS011;43999;51.660;5.616;2023-04-24T06:19:30;6.60;;;5.22;;
58196;SDS011;43999;51.660;5.616;2023-04-24T06:22:01;7.38;;;5.75;;
58196;SDS011;43999;51.660;5.616;2023-04-24T06:24:30;6.10;;;4.43;;
58196;SDS011;43999;51.660;5.616;2023-04-24T06:27:00;7.72;;;4.38;;
58196;SDS011;43999;51.660;5.616;2023-04-24T06:29:29;4.22;;;3.83;;
58196;SDS011;43999;51.660;5.616;2023-04-24T06:31:57;4.68;;;3.45;;
58196;SDS011;43999;51.660;5.616;2023-04-24T06:34:31;4.22;;;3.33;;
58196;SDS011;43999;51.660;5.616;2023-04-24T06:37:00;4.63;;;2.67;;
58196;SDS011;43999;51.660;5.616;2023-04-24T06:39:33;2.55;;;2.20;;
58196;SDS011;43999;51.660;5.616;2023-04-24T06:42:01;4.82;;;2.33;;
58196;SDS011;43999;51.660;5.616;2023-04-24T06:44:33;6.22;;;2.55;;
58196;SDS011;43999;51.660;5.616;2023-04-24T06:47:12;3.70;;;2.78;;
58196;SDS011;43999;51.660;5.616;2023-04-24T06:49:41;3.38;;;2.92;;
58196;SDS011;43999;51.660;5.616;2023-04-24T06:52:11;5.22;;;3.17;;
58196;SDS011;43999;51.660;5.616;2023-04-24T06:55:01;5.75;;;3.28;;
58196;SDS011;43999;51.660;5.616;2023-04-24T06:57:32;5.22;;;4.13;;
58196;SDS011;43999;51.660;5.616;2023-04-24T07:00:12;5.88;;;4.90;;
58196;SDS011;43999;51.660;5.616;2023-04-24T07:02:42;7.88;;;5.22;;
58196;SDS011;43999;51.660;5.616;2023-04-24T07:05:12;7.03;;;5.97;;
58196;SDS011;43999;51.660;5.616;2023-04-24T07:07:43;11.75;;;7.88;;
58196;SDS011;43999;51.660;5.616;2023-04-24T07:10:16;10.65;;;9.57;;
58196;SDS011;43999;51.660;5.616;2023-04-24T07:12:46;7.38;;;6.65;;
58196;SDS011;43999;51.660;5.616;2023-04-24T07:15:25;10.05;;;9.00;;
58196;SDS011;43999;51.660;5.616;2023-04-24T07:18:00;11.13;;;9.98;;
58196;SDS011;43999;51.660;5.616;2023-04-24T07:20:32;12.98;;;11.02;;
58196;SDS011;43999;51.660;5.616;2023-04-24T07:23:01;13.82;;;12.45;;
58196;SDS011;43999;51.660;5.616;2023-04-24T07:25:35;15.88;;;11.95;;
58196;SDS011;43999;51.660;5.616;2023-04-24T07:28:06;18.67;;;15.98;;
58196;SDS011;43999;51.660;5.616;2023-04-24T07:30:35;16.13;;;13.43;;
58196;SDS011;43999;51.660;5.616;2023-04-24T07:33:06;16.70;;;13.65;;
58196;SDS011;43999;51.660;5.616;2023-04-24T07:35:41;18.55;;;15.70;;
58196;SDS011;43999;51.660;5.616;2023-04-24T07:38:12;24.27;;;18.20;;
58196;SDS011;43999;51.660;5.616;2023-04-24T07:40:47;21.80;;;17.17;;
58196;SDS011;43999;51.660;5.616;2023-04-24T07:43:20;20.85;;;15.02;;
58196;SDS011;43999;51.660;5.616;2023-04-24T07:45:55;17.77;;;14.27;;
58196;SDS011;43999;51.660;5.616;2023-04-24T07:48:25;19.98;;;14.20;;
58196;SDS011;43999;51.660;5.616;2023-04-24T07:50:55;17.70;;;14.50;;
58196;SDS011;43999;51.660;5.616;2023-04-24T07:53:31;15.77;;;14.05;;
58196;SDS011;43999;51.660;5.616;2023-04-24T07:56:01;16.30;;;13.07;;
58196;SDS011;43999;51.660;5.616;2023-04-24T07:58:28;15.20;;;13.38;;
58196;SDS011;43999;51.660;5.616;2023-04-24T08:00:59;21.70;;;16.88;;
58196;SDS011;43999;51.660;5.616;2023-04-24T08:03:40;19.63;;;13.68;;
58196;SDS011;43999;51.660;5.616;2023-04-24T08:06:11;22.15;;;14.60;;
58196;SDS011;43999;51.660;5.616;2023-04-24T08:08:40;21.85;;;18.20;;
58196;SDS011;43999;51.660;5.616;2023-04-24T08:11:07;19.05;;;13.40;;
58196;SDS011;43999;51.660;5.616;2023-04-24T08:13:40;19.48;;;13.15;;
58196;SDS011;43999;51.660;5.616;2023-04-24T08:16:18;21.63;;;13.57;;
58196;SDS011;43999;51.660;5.616;2023-04-24T08:18:46;22.83;;;15.00;;
58196;SDS011;43999;51.660;5.616;2023-04-24T08:21:16;28.70;;;17.13;;
58196;SDS011;43999;51.660;5.616;2023-04-24T08:23:54;25.00;;;14.13;;
58196;SDS011;43999;51.660;5.616;2023-04-24T08:26:34;24.25;;;12.80;;
58196;SDS011;43999;51.660;5.616;2023-04-24T08:29:33;17.00;;;13.27;;
58196;SDS011;43999;51.660;5.616;2023-04-24T08:32:12;23.80;;;15.52;;
58196;SDS011;43999;51.660;5.616;2023-04-24T08:34:43;19.55;;;11.65;;
58196;SDS011;43999;51.660;5.616;2023-04-24T08:37:42;11.13;;;6.80;;
58196;SDS011;43999;51.660;5.616;2023-04-24T08:40:23;13.65;;;9.00;;
58196;SDS011;43999;51.660;5.616;2023-04-24T08:42:58;15.35;;;7.78;;
58196;SDS011;43999;51.660;5.616;2023-04-24T08:45:33;11.80;;;7.65;;
58196;SDS011;43999;51.660;5.616;2023-04-24T08:48:01;11.57;;;7.32;;
58196;SDS011;43999;51.660;5.616;2023-04-24T08:50:36;18.75;;;9.13;;
58196;SDS011;43999;51.660;5.616;2023-04-24T08:53:09;20.83;;;9.00;;
58196;SDS011;43999;51.660;5.616;2023-04-24T08:55:43;15.60;;;8.88;;
58196;SDS011;43999;51.660;5.616;2023-04-24T08:58:21;14.50;;;8.27;;
58196;SDS011;43999;51.660;5.616;2023-04-24T09:00:53;22.70;;;8.43;;
58196;SDS011;43999;51.660;5.616;2023-04-24T09:03:22;15.18;;;8.75;;
58196;SDS011;43999;51.660;5.616;2023-04-24T09:05:53;17.60;;;7.53;;
58196;SDS011;43999;51.660;5.616;2023-04-24T09:08:25;13.38;;;6.60;;
58196;SDS011;43999;51.660;5.616;2023-04-24T09:10:55;17.08;;;7.47;;
58196;SDS011;43999;51.660;5.616;2023-04-24T09:13:31;14.02;;;6.90;;
58196;SDS011;43999;51.660;5.616;2023-04-24T09:18:36;12.38;;;6.30;;
58196;SDS011;43999;51.660;5.616;2023-04-24T09:21:09;15.18;;;8.55;;
58196;SDS011;43999;51.660;5.616;2023-04-24T09:23:38;15.40;;;6.93;;
58196;SDS011;43999;51.660;5.616;2023-04-24T09:26:09;17.23;;;7.90;;
58196;SDS011;43999;51.660;5.616;2023-04-24T09:28:41;13.45;;;6.15;;
58196;SDS011;43999;51.660;5.616;2023-04-24T09:31:14;12.07;;;5.47;;
58196;SDS011;43999;51.660;5.616;2023-04-24T09:34:07;13.80;;;6.70;;
58196;SDS011;43999;51.660;5.616;2023-04-24T09:36:44;11.88;;;5.55;;
58196;SDS011;43999;51.660;5.616;2023-04-24T09:39:14;12.20;;;6.90;;
58196;SDS011;43999;51.660;5.616;2023-04-24T09:41:53;16.58;;;6.95;;
58196;SDS011;43999;51.660;5.616;2023-04-24T09:44:27;16.92;;;6.38;;
58196;SDS011;43999;51.660;5.616;2023-04-24T09:46:58;7.82;;;4.70;;
58196;SDS011;43999;51.660;5.616;2023-04-24T09:49:36;17.08;;;5.95;;
58196;SDS011;43999;51.660;5.616;2023-04-24T09:52:07;10.45;;;4.90;;
58196;SDS011;43999;51.660;5.616;2023-04-24T09:54:39;11.77;;;5.70;;
58196;SDS011;43999;51.660;5.616;2023-04-24T09:57:08;7.72;;;4.68;;
58196;SDS011;43999;51.660;5.616;2023-04-24T09:59:43;8.55;;;4.88;;
58196;SDS011;43999;51.660;5.616;2023-04-24T10:02:19;8.57;;;4.28;;
58196;SDS011;43999;51.660;5.616;2023-04-24T10:04:55;15.57;;;5.32;;
58196;SDS011;43999;51.660;5.616;2023-04-24T10:07:27;6.13;;;3.95;;
58196;SDS011;43999;51.660;5.616;2023-04-24T10:09:56;10.75;;;4.82;;
58196;SDS011;43999;51.660;5.616;2023-04-24T10:12:32;11.95;;;5.43;;
58196;SDS011;43999;51.660;5.616;2023-04-24T10:15:00;9.77;;;5.00;;
58196;SDS011;43999;51.660;5.616;2023-04-24T10:17:30;11.15;;;5.63;;
58196;SDS011;43999;51.660;5.616;2023-04-24T10:19:59;7.93;;;4.45;;
58196;SDS011;43999;51.660;5.616;2023-04-24T10:22:28;15.00;;;5.35;;
58196;SDS011;43999;51.660;5.616;2023-04-24T10:24:57;14.63;;;5.50;;
58196;SDS011;43999;51.660;5.616;2023-04-24T10:27:27;7.70;;;4.45;;
58196;SDS011;43999;51.660;5.616;2023-04-24T10:30:00;8.27;;;4.70;;
58196;SDS011;43999;51.660;5.616;2023-04-24T10:32:29;11.60;;;4.80;;
58196;SDS011;43999;51.660;5.616;2023-04-24T10:34:56;8.25;;;4.95;;
58196;SDS011;43999;51.660;5.616;2023-04-24T10:37:26;7.78;;;4.18;;
58196;SDS011;43999;51.660;5.616;2023-04-24T10:39:55;6.35;;;4.40;;
58196;SDS011;43999;51.660;5.616;2023-04-24T10:42:23;5.07;;;4.00;;
58196;SDS011;43999;51.660;5.616;2023-04-24T10:44:54;6.38;;;3.50;;
58196;SDS011;43999;51.660;5.616;2023-04-24T10:47:25;6.70;;;3.65;;
58196;SDS011;43999;51.660;5.616;2023-04-24T10:49:59;8.70;;;4.55;;
58196;SDS011;43999;51.660;5.616;2023-04-24T10:52:43;6.00;;;3.60;;
58196;SDS011;43999;51.660;5.616;2023-04-24T10:55:39;9.35;;;4.32;;
58196;SDS011;43999;51.660;5.616;2023-04-24T10:58:23;4.55;;;3.08;;
58196;SDS011;43999;51.660;5.616;2023-04-24T11:01:03;6.57;;;2.70;;
58196;SDS011;43999;51.660;5.616;2023-04-24T11:03:37;4.78;;;2.90;;
58196;SDS011;43999;51.660;5.616;2023-04-24T11:06:17;5.15;;;2.60;;
58196;SDS011;43999;51.660;5.616;2023-04-24T11:09:07;5.15;;;2.85;;
58196;SDS011;43999;51.660;5.616;2023-04-24T11:11:44;9.02;;;3.47;;
58196;SDS011;43999;51.660;5.616;2023-04-24T11:14:20;6.55;;;2.58;;
58196;SDS011;43999;51.660;5.616;2023-04-24T11:16:51;4.65;;;1.80;;
58196;SDS011;43999;51.660;5.616;2023-04-24T11:19:23;5.57;;;2.17;;
58196;SDS011;43999;51.660;5.616;2023-04-24T11:21:58;11.18;;;2.25;;
58196;SDS011;43999;51.660;5.616;2023-04-24T11:27:20;4.97;;;2.05;;
58196;SDS011;43999;51.660;5.616;2023-04-24T11:32:25;3.72;;;2.08;;
58196;SDS011;43999;51.660;5.616;2023-04-24T11:37:41;6.97;;;2.88;;
58196;SDS011;43999;51.660;5.616;2023-04-24T11:40:33;4.35;;;2.00;;
58196;SDS011;43999;51.660;5.616;2023-04-24T11:43:02;4.75;;;2.53;;
58196;SDS011;43999;51.660;5.616;2023-04-24T11:45:33;4.68;;;2.08;;
58196;SDS011;43999;51.660;5.616;2023-04-24T11:48:06;4.93;;;2.65;;
58196;SDS011;43999;51.660;5.616;2023-04-24T11:50:33;2.95;;;1.92;;
58196;SDS011;43999;51.660;5.616;2023-04-24T11:53:04;4.13;;;1.92;;
58196;SDS011;43999;51.660;5.616;2023-04-24T11:55:31;4.60;;;2.20;;
58196;SDS011;43999;51.660;5.616;2023-04-24T11:57:59;5.70;;;2.38;;
58196;SDS011;43999;51.660;5.616;2023-04-24T12:00:30;5.38;;;2.42;;
58196;SDS011;43999;51.660;5.616;2023-04-24T12:03:06;4.53;;;2.90;;
58196;SDS011;43999;51.660;5.616;2023-04-24T12:05:41;5.50;;;2.72;;
58196;SDS011;43999;51.660;5.616;2023-04-24T12:08:08;7.45;;;3.08;;
58196;SDS011;43999;51.660;5.616;2023-04-24T12:10:37;4.95;;;2.38;;
58196;SDS011;43999;51.660;5.616;2023-04-24T12:13:05;8.77;;;3.92;;
58196;SDS011;43999;51.660;5.616;2023-04-24T12:15:39;4.32;;;2.28;;
58196;SDS011;43999;51.660;5.616;2023-04-24T12:18:07;10.82;;;2.95;;
58196;SDS011;43999;51.660;5.616;2023-04-24T12:20:40;5.53;;;2.80;;
58196;SDS011;43999;51.660;5.616;2023-04-24T12:23:09;7.10;;;3.25;;
58196;SDS011;43999;51.660;5.616;2023-04-24T12:25:38;6.50;;;3.40;;
58196;SDS011;43999;51.660;5.616;2023-04-24T12:31:03;7.75;;;2.92;;
58196;SDS011;43999;51.660;5.616;2023-04-24T12:33:33;4.53;;;2.28;;
58196;SDS011;43999;51.660;5.616;2023-04-24T12:36:04;6.18;;;2.38;;
58196;SDS011;43999;51.660;5.616;2023-04-24T12:38:33;6.95;;;2.50;;
58196;SDS011;43999;51.660;5.616;2023-04-24T12:41:11;6.53;;;2.92;;
58196;SDS011;43999;51.660;5.616;2023-04-24T12:43:53;5.53;;;2.47;;
58196;SDS011;43999;51.660;5.616;2023-04-24T12:46:21;7.22;;;3.17;;
58196;SDS011;43999;51.660;5.616;2023-04-24T12:48:59;5.65;;;3.40;;
58196;SDS011;43999;51.660;5.616;2023-04-24T12:51:31;6.35;;;3.33;;
58196;SDS011;43999;51.660;5.616;2023-04-24T12:53:59;5.15;;;3.78;;
58196;SDS011;43999;51.660;5.616;2023-04-24T12:56:29;10.68;;;4.55;;
58196;SDS011;43999;51.660;5.616;2023-04-24T12:59:08;6.57;;;3.83;;
58196;SDS011;43999;51.660;5.616;2023-04-24T13:01:36;6.63;;;3.55;;
58196;SDS011;43999;51.660;5.616;2023-04-24T13:04:05;5.18;;;3.30;;
58196;SDS011;43999;51.660;5.616;2023-04-24T13:06:33;4.22;;;2.63;;
58196;SDS011;43999;51.660;5.616;2023-04-24T13:09:03;5.13;;;2.88;;
58196;SDS011;43999;51.660;5.616;2023-04-24T13:11:31;6.28;;;2.65;;
58196;SDS011;43999;51.660;5.616;2023-04-24T13:14:00;3.67;;;2.80;;
58196;SDS011;43999;51.660;5.616;2023-04-24T13:16:27;5.28;;;3.05;;
58196;SDS011;43999;51.660;5.616;2023-04-24T13:18:55;4.60;;;3.13;;
58196;SDS011;43999;51.660;5.616;2023-04-24T13:21:30;4.80;;;3.03;;
58196;SDS011;43999;51.660;5.616;2023-04-24T13:24:00;3.40;;;2.55;;
58196;SDS011;43999;51.660;5.616;2023-04-24T13:26:27;4.60;;;2.60;;
58196;SDS011;43999;51.660;5.616;2023-04-24T13:29:06;6.22;;;3.05;;
58196;SDS011;43999;51.660;5.616;2023-04-24T13:31:34;6.55;;;3.25;;
58196;SDS011;43999;51.660;5.616;2023-04-24T13:34:02;2.50;;;2.00;;
58196;SDS011;43999;51.660;5.616;2023-04-24T13:36:30;5.93;;;2.70;;
58196;SDS011;43999;51.660;5.616;2023-04-24T13:38:58;4.50;;;2.80;;
58196;SDS011;43999;51.660;5.616;2023-04-24T13:41:26;6.25;;;2.63;;
58196;SDS011;43999;51.660;5.616;2023-04-24T13:43:54;5.47;;;3.00;;
58196;SDS011;43999;51.660;5.616;2023-04-24T13:46:21;3.75;;;2.67;;
58196;SDS011;43999;51.660;5.616;2023-04-24T13:48:57;5.60;;;2.85;;
58196;SDS011;43999;51.660;5.616;2023-04-24T13:51:27;6.93;;;4.18;;
58196;SDS011;43999;51.660;5.616;2023-04-24T13:53:55;5.40;;;3.17;;
58196;SDS011;43999;51.660;5.616;2023-04-24T13:56:24;9.45;;;3.30;;
58196;SDS011;43999;51.660;5.616;2023-04-24T13:58:54;5.78;;;3.55;;
58196;SDS011;43999;51.660;5.616;2023-04-24T14:01:22;5.05;;;3.17;;
58196;SDS011;43999;51.660;5.616;2023-04-24T14:03:51;5.10;;;3.05;;
58196;SDS011;43999;51.660;5.616;2023-04-24T14:06:25;4.28;;;3.10;;
58196;SDS011;43999;51.660;5.616;2023-04-24T14:08:53;4.18;;;2.40;;
58196;SDS011;43999;51.660;5.616;2023-04-24T14:11:23;4.53;;;3.22;;
58196;SDS011;43999;51.660;5.616;2023-04-24T14:13:55;3.63;;;2.40;;
58196;SDS011;43999;51.660;5.616;2023-04-24T14:16:30;4.43;;;1.77;;
58196;SDS011;43999;51.660;5.616;2023-04-24T14:19:01;5.05;;;2.65;;
58196;SDS011;43999;51.660;5.616;2023-04-24T14:21:32;4.28;;;2.25;;
58196;SDS011;43999;51.660;5.616;2023-04-24T14:24:02;5.72;;;2.70;;
58196;SDS011;43999;51.660;5.616;2023-04-24T14:26:40;4.93;;;2.30;;
58196;SDS011;43999;51.660;5.616;2023-04-24T14:29:07;3.78;;;2.55;;
58196;SDS011;43999;51.660;5.616;2023-04-24T14:31:43;6.47;;;2.58;;
58196;SDS011;43999;51.660;5.616;2023-04-24T14:34:12;9.13;;;4.05;;
58196;SDS011;43999;51.660;5.616;2023-04-24T14:36:41;6.40;;;3.42;;
58196;SDS011;43999;51.660;5.616;2023-04-24T14:39:09;5.32;;;2.75;;
58196;SDS011;43999;51.660;5.616;2023-04-24T14:41:43;5.50;;;2.92;;
58196;SDS011;43999;51.660;5.616;2023-04-24T14:44:14;4.38;;;3.22;;
58196;SDS011;43999;51.660;5.616;2023-04-24T14:46:43;3.63;;;3.22;;
58196;SDS011;43999;51.660;5.616;2023-04-24T14:49:14;7.15;;;4.28;;
58196;SDS011;43999;51.660;5.616;2023-04-24T14:51:43;6.63;;;5.03;;
58196;SDS011;43999;51.660;5.616;2023-04-24T14:54:12;7.75;;;3.70;;
58196;SDS011;43999;51.660;5.616;2023-04-24T14:56:42;5.55;;;3.72;;
58196;SDS011;43999;51.660;5.616;2023-04-24T14:59:11;8.70;;;4.28;;
58196;SDS011;43999;51.660;5.616;2023-04-24T15:01:38;6.43;;;3.42;;
58196;SDS011;43999;51.660;5.616;2023-04-24T15:04:41;12.57;;;4.28;;
58196;SDS011;43999;51.660;5.616;2023-04-24T15:07:09;7.40;;;4.40;;
58196;SDS011;43999;51.660;5.616;2023-04-24T15:09:43;4.90;;;2.80;;
58196;SDS011;43999;51.660;5.616;2023-04-24T15:12:12;7.53;;;3.35;;
58196;SDS011;43999;51.660;5.616;2023-04-24T15:14:44;6.65;;;3.13;;
58196;SDS011;43999;51.660;5.616;2023-04-24T15:17:11;4.97;;;3.08;;